Time;durP1;ratioP1;P1;durP2;ratioP2;P2;SDS_P1;SDS_P2;PMS_P1;PMS_P2;Temp;Humidity;BMP_temperature;BMP_pressure;BME280_temperature;BME280_humidity;BME280_pressure;Samples;Min_cycle;Max_cycle;Signal;HPM_P1;HPM_P2
2023/05/01 00:01:05;;;;;;;26.20;15.40;;;5.30;99.90;;;;;;5036560;28;20193;-50
2023/05/01 00:03:32;;;;;;;24.93;14.47;;;5.30;99.90;;;;;;5036423;28;20642;-49
2023/05/01 00:06:03;;;;;;;23.93;14.10;;;5.30;99.90;;;;;;5035478;28;20203;-50
2023/05/01 00:08:29;;;;;;;21.77;14.17;;;5.30;99.90;;;;;;5068127;28;20468;-50
2023/05/01 00:10:54;;;;;;;21.13;12.77;;;5.20;99.90;;;;;;5036236;28;20999;-50
2023/05/01 00:13:23;;;;;;;20.97;13.70;;;5.20;99.90;;;;;;5036404;28;20190;-49
2023/05/01 00:15:48;;;;;;;22.63;13.77;;;5.20;99.90;;;;;;5035699;28;20238;-49
2023/05/01 00:18:14;;;;;;;19.23;13.10;;;5.20;99.90;;;;;;5035806;28;20465;-49
2023/05/01 00:20:40;;;;;;;21.00;13.20;;;5.20;99.90;;;;;;5036011;28;20180;-49
2023/05/01 00:23:07;;;;;;;25.63;13.83;;;5.30;99.90;;;;;;5036082;28;20202;-49
2023/05/01 00:25:33;;;;;;;20.97;12.80;;;5.30;99.90;;;;;;5035928;28;20429;-50
2023/05/01 00:27:58;;;;;;;20.60;13.00;;;5.30;99.90;;;;;;5035957;28;20419;-49
2023/05/01 00:30:26;;;;;;;17.03;11.70;;;5.30;99.90;;;;;;5035728;28;20262;-50
2023/05/01 00:32:52;;;;;;;18.17;12.17;;;5.30;99.90;;;;;;5035974;28;20190;-49
2023/05/01 00:35:17;;;;;;;17.67;11.23;;;5.30;99.90;;;;;;5035443;28;20476;-49
2023/05/01 00:37:43;;;;;;;24.13;12.10;;;5.30;99.90;;;;;;5035558;28;20179;-49
2023/05/01 00:40:08;;;;;;;18.07;11.40;;;5.30;99.90;;;;;;5035401;28;20624;-50
2023/05/01 00:42:38;;;;;;;19.80;11.83;;;5.30;99.90;;;;;;5035532;28;20185;-50
2023/05/01 00:45:07;;;;;;;21.47;10.93;;;5.20;99.90;;;;;;5035877;28;20186;-50
2023/05/01 00:47:36;;;;;;;22.10;11.07;;;5.30;99.90;;;;;;5035198;28;20981;-50
2023/05/01 00:50:02;;;;;;;18.97;10.67;;;5.30;99.90;;;;;;5035242;28;20464;-49
2023/05/01 00:52:28;;;;;;;19.43;11.00;;;5.30;99.90;;;;;;5035528;28;20921;-50
2023/05/01 00:54:54;;;;;;;18.83;9.37;;;5.30;99.90;;;;;;5035544;28;20430;-51
2023/05/01 00:57:21;;;;;;;18.10;10.07;;;5.30;99.90;;;;;;5035231;28;20179;-50
2023/05/01 00:59:47;;;;;;;19.97;9.10;;;5.30;99.90;;;;;;5035147;28;20429;-50
2023/05/01 01:02:13;;;;;;;13.90;8.03;;;5.30;99.90;;;;;;5035390;28;20918;-50
2023/05/01 01:04:43;;;;;;;19.57;8.37;;;5.40;99.90;;;;;;5035416;28;20421;-50
2023/05/01 01:07:24;;;;;;;14.53;8.33;;;5.40;99.90;;;;;;5035351;28;20513;-49
2023/05/01 01:10:17;;;;;;;16.13;8.70;;;5.40;99.90;;;;;;5035402;28;20476;-49
2023/05/01 01:12:45;;;;;;;15.27;7.70;;;5.40;99.90;;;;;;5035046;28;20410;-50
2023/05/01 01:15:19;;;;;;;14.43;8.00;;;5.40;95.30;;;;;;5035082;28;20449;-49
2023/05/01 01:17:50;;;;;;;19.17;9.10;;;5.40;91.50;;;;;;5034203;28;20411;-49
2023/05/01 01:20:39;;;;;;;15.20;7.57;;;5.50;82.50;;;;;;5035043;28;20391;-50
2023/05/01 01:23:41;;;;;;;13.80;6.80;;;5.40;61.40;;;;;;5034890;28;20739;-49
2023/05/01 01:26:12;;;;;;;10.53;7.50;;;5.40;48.00;;;;;;5034782;28;20446;-50
2023/05/01 01:29:02;;;;;;;11.17;7.33;;;5.40;46.40;;;;;;5034875;28;20950;-50
2023/05/01 01:31:49;;;;;;;11.23;6.63;;;5.40;40.50;;;;;;5034694;28;20445;-49
2023/05/01 01:34:19;;;;;;;10.27;6.53;;;5.40;28.10;;;;;;5034533;28;20473;-49
2023/05/01 01:37:03;;;;;;;9.57;6.73;;;5.50;25.80;;;;;;5034346;28;20433;-49
2023/05/01 01:39:34;;;;;;;13.80;6.80;;;5.50;24.80;;;;;;5034509;28;20414;-49
2023/05/01 01:42:02;;;;;;;13.60;7.43;;;5.40;15.80;;;;;;5034551;28;20448;-49
2023/05/01 01:44:36;;;;;;;14.47;6.93;;;5.40;12.20;;;;;;5034638;28;20475;-50
2023/05/01 01:47:06;;;;;;;15.10;8.30;;;5.40;10.30;;;;;;5034667;28;20410;-49
2023/05/01 01:49:33;;;;;;;11.87;7.80;;;5.40;4.60;;;;;;5034004;28;20494;-50
2023/05/01 01:52:02;;;;;;;19.33;6.43;;;5.40;8.10;;;;;;5034040;28;20415;-49
2023/05/01 01:54:41;;;;;;;14.37;6.73;;;5.40;5.50;;;;;;5034125;28;20432;-50
2023/05/01 01:57:08;;;;;;;9.90;6.43;;;5.40;7.90;;;;;;5034302;28;20406;-49
2023/05/01 01:59:34;;;;;;;12.27;7.10;;;5.30;5.40;;;;;;5034405;28;20424;-49
2023/05/01 02:02:02;;;;;;;15.40;7.30;;;5.30;7.50;;;;;;5034236;28;20414;-49
2023/05/01 02:04:30;;;;;;;12.30;7.33;;;5.30;11.00;;;;;;5033912;28;20804;-49
2023/05/01 02:06:57;;;;;;;11.53;7.40;;;5.30;15.70;;;;;;5034314;28;20977;-50
2023/05/01 02:09:25;;;;;;;11.90;7.70;;;5.30;15.90;;;;;;5033839;28;20493;-49
2023/05/01 02:11:52;;;;;;;13.63;7.10;;;5.30;17.60;;;;;;5034143;28;20492;-49
2023/05/01 02:14:20;;;;;;;11.97;7.40;;;5.30;19.30;;;;;;5033498;28;20464;-49
2023/05/01 02:16:47;;;;;;;10.37;6.47;;;5.30;18.00;;;;;;5033795;28;20414;-49
2023/05/01 02:19:14;;;;;;;11.87;6.90;;;5.30;22.20;;;;;;5033799;28;20452;-49
2023/05/01 02:21:41;;;;;;;11.37;6.73;;;5.30;20.30;;;;;;5033816;28;20421;-50
2023/05/01 02:24:09;;;;;;;15.05;7.47;;;5.30;21.10;;;;;;5032466;28;20547;-50
2023/05/01 02:26:41;;;;;;;15.43;7.03;;;5.30;20.30;;;;;;5033906;28;20191;-50
2023/05/01 02:29:07;;;;;;;12.20;6.83;;;5.30;22.70;;;;;;5033345;28;20469;-50
2023/05/01 02:31:33;;;;;;;13.87;6.80;;;5.30;24.10;;;;;;5033496;28;20419;-49
2023/05/01 02:33:59;;;;;;;11.67;7.17;;;5.30;20.10;;;;;;5033981;28;20184;-49
2023/05/01 02:36:24;;;;;;;12.20;6.40;;;5.20;18.60;;;;;;5033621;28;20971;-49
2023/05/01 02:38:50;;;;;;;13.37;7.30;;;5.20;17.50;;;;;;5033897;28;20190;-50
2023/05/01 02:41:20;;;;;;;12.13;6.60;;;5.20;23.50;;;;;;5033886;28;20266;-50
2023/05/01 02:43:54;;;;;;;10.20;6.33;;;5.10;43.30;;;;;;5033950;28;20432;-50
2023/05/01 02:46:23;;;;;;;10.87;6.43;;;5.10;42.10;;;;;;5033354;28;20437;-50
2023/05/01 02:48:49;;;;;;;14.90;6.73;;;5.10;42.30;;;;;;5032825;28;20536;-49
2023/05/01 02:51:18;;;;;;;10.20;6.60;;;5.10;43.70;;;;;;5033590;28;20478;-49
2023/05/01 02:53:45;;;;;;;12.97;6.10;;;5.20;38.20;;;;;;5033382;28;20826;-50
2023/05/01 02:56:11;;;;;;;10.20;5.87;;;5.20;31.50;;;;;;5033627;28;20418;-49
2023/05/01 02:58:37;;;;;;;13.50;6.80;;;5.20;29.20;;;;;;5033611;28;20426;-50
2023/05/01 03:01:03;;;;;;;10.33;6.40;;;5.20;30.00;;;;;;5033365;28;20421;-49
2023/05/01 03:03:28;;;;;;;11.93;6.93;;;5.20;26.60;;;;;;5033457;28;20493;-49
2023/05/01 03:05:54;;;;;;;11.93;6.27;;;5.20;21.40;;;;;;5033431;28;20180;-50
2023/05/01 03:08:20;;;;;;;12.10;6.60;;;5.20;17.00;;;;;;5033487;28;20214;-49
2023/05/01 03:10:45;;;;;;;11.80;7.60;;;5.10;15.60;;;;;;5033501;28;20550;-50
2023/05/01 03:13:11;;;;;;;12.10;6.90;;;5.10;22.50;;;;;;5033381;28;20619;-49
2023/05/01 03:15:37;;;;;;;11.07;6.70;;;5.20;24.70;;;;;;5033599;28;20180;-50
2023/05/01 03:18:03;;;;;;;10.90;6.50;;;5.10;18.90;;;;;;5033584;28;20628;-50
2023/05/01 03:20:29;;;;;;;13.13;6.13;;;5.20;14.70;;;;;;5033477;28;20454;-50
2023/05/01 03:22:56;;;;;;;9.80;5.80;;;5.10;8.70;;;;;;5033464;28;20507;-49
2023/05/01 03:25:21;;;;;;;12.07;7.10;;;5.10;20.30;;;;;;5033257;28;20183;-49
2023/05/01 03:27:48;;;;;;;12.43;7.30;;;5.10;3.30;;;;;;5033360;28;20418;-50
2023/05/01 03:30:14;;;;;;;9.70;6.23;;;5.10;8.80;;;;;;5033054;28;20262;-49
2023/05/01 03:32:40;;;;;;;19.27;7.20;;;5.10;13.00;;;;;;5033307;28;20422;-49
2023/05/01 03:35:06;;;;;;;9.27;6.33;;;5.10;7.90;;;;;;5032968;28;20426;-49
2023/05/01 03:37:32;;;;;;;11.80;6.60;;;5.10;5.40;;;;;;5033265;28;20631;-49
2023/05/01 03:39:58;;;;;;;12.57;7.10;;;5.10;3.80;;;;;;5033483;28;20422;-50
2023/05/01 03:42:24;;;;;;;12.00;6.30;;;5.10;7.40;;;;;;5036951;28;20917;-49
2023/05/01 03:44:50;;;;;;;26.73;7.00;;;5.10;7.00;;;;;;5036429;28;20242;-49
2023/05/01 03:47:16;;;;;;;13.53;6.87;;;5.10;6.30;;;;;;5036289;28;20430;-50
2023/05/01 03:49:42;;;;;;;10.50;6.27;;;5.20;6.30;;;;;;5036973;28;20199;-50
2023/05/01 03:52:10;;;;;;;14.00;6.37;;;5.20;1.00;;;;;;5036726;28;20197;-49
2023/05/01 03:54:37;;;;;;;14.33;6.87;;;5.20;1.00;;;;;;5036810;28;20418;-51
2023/05/01 03:57:03;;;;;;;10.87;6.80;;;5.20;1.00;;;;;;5036402;28;20418;-51
2023/05/01 03:59:28;;;;;;;11.17;6.30;;;5.20;1.00;;;;;;5068588;28;20414;-49
2023/05/01 04:01:54;;;;;;;14.23;6.80;;;5.20;1.00;;;;;;5036408;28;20555;-50
2023/05/01 04:04:19;;;;;;;19.20;7.10;;;5.20;1.00;;;;;;5036644;28;20190;-49
2023/05/01 04:06:47;;;;;;;10.77;6.40;;;5.20;1.00;;;;;;5036300;28;20180;-50
2023/05/01 04:09:13;;;;;;;11.03;6.07;;;5.30;1.00;;;;;;5036116;28;20213;-50
2023/05/01 04:11:38;;;;;;;9.50;5.97;;;5.30;1.00;;;;;;5036008;28;20446;-50
2023/05/01 04:14:04;;;;;;;12.00;6.30;;;5.40;1.00;;;;;;5036311;28;20176;-50
2023/05/01 04:16:30;;;;;;;8.17;5.40;;;5.40;1.00;;;;;;5036499;28;20175;-50
2023/05/01 04:18:56;;;;;;;10.03;5.77;;;5.50;1.00;;;;;;5036099;28;20187;-50
2023/05/01 04:21:21;;;;;;;9.37;5.50;;;5.50;1.00;;;;;;5035792;28;20852;-50
2023/05/01 04:23:47;;;;;;;11.53;6.20;;;5.60;1.00;;;;;;5035816;28;20238;-50
2023/05/01 04:26:13;;;;;;;9.47;6.20;;;5.70;1.00;;;;;;5036135;28;20233;-51
2023/05/01 04:28:38;;;;;;;12.37;5.63;;;5.80;1.00;;;;;;5035663;28;20207;-50
2023/05/01 04:31:04;;;;;;;10.90;6.40;;;5.80;1.00;;;;;;5036011;28;20191;-50
2023/05/01 04:33:29;;;;;;;12.70;6.23;;;5.80;1.00;;;;;;5035575;28;20183;-50
2023/05/01 04:35:55;;;;;;;12.03;6.63;;;5.90;1.00;;;;;;5035924;28;20190;-50
2023/05/01 04:38:20;;;;;;;10.20;5.90;;;5.90;1.00;;;;;;5035384;28;20183;-50
2023/05/01 04:40:46;;;;;;;12.67;5.60;;;6.00;1.00;;;;;;5035635;28;20176;-50
2023/05/01 04:43:12;;;;;;;10.60;6.17;;;6.10;1.00;;;;;;5035875;28;20280;-50
2023/05/01 04:45:37;;;;;;;10.30;6.37;;;6.10;1.00;;;;;;5035958;28;20233;-50
2023/05/01 04:48:03;;;;;;;16.50;6.93;;;6.20;1.00;;;;;;5035093;28;20235;-50
2023/05/01 04:50:29;;;;;;;13.13;6.60;;;6.40;1.00;;;;;;5035292;28;20275;-50
2023/05/01 04:52:55;;;;;;;15.30;7.10;;;6.50;1.00;;;;;;5035008;28;20441;-50
2023/05/01 04:55:21;;;;;;;15.50;7.03;;;6.60;1.00;;;;;;5035404;28;20411;-50
2023/05/01 04:57:46;;;;;;;12.40;6.40;;;6.70;1.00;;;;;;5035045;28;20187;-50
2023/05/01 05:00:12;;;;;;;14.47;6.50;;;6.80;1.00;;;;;;5035369;28;20183;-50
2023/05/01 05:02:38;;;;;;;12.07;6.10;;;7.00;1.00;;;;;;5035401;28;20188;-50
2023/05/01 05:05:03;;;;;;;14.57;6.80;;;7.10;1.00;;;;;;5034761;28;20418;-50
2023/05/01 05:07:29;;;;;;;9.00;5.80;;;7.20;1.00;;;;;;5034924;28;20190;-49
2023/05/01 05:09:55;;;;;;;11.20;6.17;;;7.30;1.00;;;;;;5034844;28;20204;-50
2023/05/01 05:12:20;;;;;;;9.33;6.10;;;7.40;1.00;;;;;;5035466;28;20236;-50
2023/05/01 05:14:46;;;;;;;12.23;6.40;;;7.50;1.00;;;;;;5034603;28;20182;-50
2023/05/01 05:17:12;;;;;;;15.33;6.30;;;7.60;1.00;;;;;;5035106;28;20179;-50
2023/05/01 05:19:38;;;;;;;11.63;5.70;;;7.70;1.00;;;;;;5034894;28;20429;-50
2023/05/01 05:22:04;;;;;;;11.70;6.10;;;7.80;1.00;;;;;;5034853;28;20186;-50
2023/05/01 05:24:30;;;;;;;10.83;6.10;;;7.90;1.00;;;;;;5035024;28;20186;-50
2023/05/01 05:26:55;;;;;;;10.27;6.10;;;8.00;1.00;;;;;;5035058;28;20531;-50
2023/05/01 05:29:21;;;;;;;12.03;5.97;;;8.00;1.00;;;;;;5034893;28;20469;-50
2023/05/01 05:31:47;;;;;;;12.17;6.20;;;8.10;1.00;;;;;;5034829;28;20187;-51
2023/05/01 05:34:12;;;;;;;9.90;5.50;;;8.20;1.00;;;;;;5034726;28;20648;-49
2023/05/01 05:36:38;;;;;;;12.07;5.70;;;8.30;1.00;;;;;;5034922;28;20689;-50
2023/05/01 05:39:04;;;;;;;8.97;5.53;;;8.40;1.00;;;;;;5034527;28;20274;-50
2023/05/01 05:41:29;;;;;;;11.83;5.80;;;8.60;1.00;;;;;;5034543;28;20187;-51
2023/05/01 05:43:55;;;;;;;11.17;5.80;;;8.80;1.00;;;;;;5034406;28;20182;-50
2023/05/01 05:46:21;;;;;;;10.10;5.90;;;8.90;1.00;;;;;;5034768;28;20183;-50
2023/05/01 05:48:46;;;;;;;9.60;5.63;;;9.10;1.00;;;;;;5034230;28;20242;-50
2023/05/01 05:51:12;;;;;;;13.90;5.93;;;9.40;1.00;;;;;;5034288;28;20183;-51
2023/05/01 05:53:37;;;;;;;11.20;5.43;;;9.40;1.00;;;;;;5034156;28;20194;-50
2023/05/01 05:56:03;;;;;;;13.03;5.57;;;9.60;1.00;;;;;;5034146;28;20243;-50
2023/05/01 05:58:29;;;;;;;10.87;5.53;;;9.70;1.00;;;;;;5034399;28;20675;-50
2023/05/01 06:00:55;;;;;;;8.53;4.97;;;9.70;1.00;;;;;;5034364;28;20414;-50
2023/05/01 06:03:21;;;;;;;9.40;5.87;;;10.00;1.00;;;;;;5033375;28;20562;-50
2023/05/01 06:05:47;;;;;;;8.03;5.53;;;10.10;1.00;;;;;;5034426;28;20190;-50
2023/05/01 06:08:13;;;;;;;7.67;5.60;;;10.30;1.00;;;;;;5034226;28;20266;-51
2023/05/01 06:10:41;;;;;;;8.10;5.57;;;10.50;1.00;;;;;;5034451;28;20501;-50
2023/05/01 06:13:07;;;;;;;11.47;5.30;;;10.70;1.00;;;;;;5033625;28;20179;-50
2023/05/01 06:15:34;;;;;;;10.77;5.23;;;11.00;1.00;;;;;;5033814;28;20992;-49
2023/05/01 06:17:59;;;;;;;9.30;4.70;;;11.30;1.00;;;;;;5034259;28;20487;-50
2023/05/01 06:20:25;;;;;;;9.13;5.37;;;11.60;1.00;;;;;;5033814;28;20417;-50
2023/05/01 06:22:51;;;;;;;9.83;5.10;;;11.90;1.00;;;;;;5034025;28;20581;-50
2023/05/01 06:25:16;;;;;;;13.33;5.00;;;12.00;1.00;;;;;;5033917;28;20206;-50
2023/05/01 06:27:42;;;;;;;8.47;4.80;;;12.10;1.00;;;;;;5033869;28;20202;-50
2023/05/01 06:30:08;;;;;;;14.70;6.30;;;12.20;1.00;;;;;;5033633;28;20246;-50
2023/05/01 06:32:34;;;;;;;9.03;5.63;;;12.50;1.00;;;;;;5034062;28;20707;-50
2023/05/01 06:35:00;;;;;;;7.73;5.40;;;12.60;1.00;;;;;;5033604;28;20446;-51
2023/05/01 06:37:25;;;;;;;15.00;6.03;;;12.60;1.00;;;;;;5033638;28;20585;-51
2023/05/01 06:39:51;;;;;;;14.77;5.33;;;12.70;1.00;;;;;;5033520;28;20262;-50
2023/05/01 06:42:16;;;;;;;9.50;4.87;;;12.90;1.00;;;;;;5033461;28;20245;-50
2023/05/01 06:44:42;;;;;;;8.60;5.10;;;13.00;1.00;;;;;;5033395;28;20225;-50
2023/05/01 06:47:08;;;;;;;9.07;4.27;;;13.10;1.00;;;;;;5033586;28;20540;-51
2023/05/01 06:49:34;;;;;;;9.40;4.70;;;13.30;1.00;;;;;;5033631;28;20271;-50
2023/05/01 06:52:00;;;;;;;9.50;5.60;;;13.50;1.00;;;;;;5033556;28;20415;-50
2023/05/01 06:54:25;;;;;;;11.23;5.13;;;13.40;1.00;;;;;;5033915;28;20266;-51
2023/05/01 06:56:52;;;;;;;13.13;5.40;;;13.50;1.00;;;;;;5033515;28;20184;-50
2023/05/01 06:59:18;;;;;;;7.83;4.80;;;13.70;1.00;;;;;;5033507;28;20183;-51
2023/05/01 07:01:43;;;;;;;7.83;4.87;;;14.00;1.00;;;;;;5033318;28;20769;-50
2023/05/01 07:04:09;;;;;;;8.97;5.30;;;14.30;1.00;;;;;;5033482;28;20196;-50
2023/05/01 07:06:36;;;;;;;12.47;4.70;;;14.40;1.00;;;;;;5033017;28;20183;-51
2023/05/01 07:09:02;;;;;;;8.70;4.73;;;14.60;1.00;;;;;;5033399;28;20469;-50
2023/05/01 07:11:28;;;;;;;8.33;4.63;;;14.60;1.00;;;;;;5033140;28;20414;-51
2023/05/01 07:13:54;;;;;;;9.53;4.80;;;14.60;1.00;;;;;;5033560;28;20458;-51
2023/05/01 07:16:20;;;;;;;9.40;4.13;;;14.70;1.00;;;;;;5036546;28;20624;-51
2023/05/01 07:18:46;;;;;;;6.50;4.57;;;14.90;1.00;;;;;;5037366;28;20502;-51
2023/05/01 07:21:11;;;;;;;10.17;4.40;;;15.30;1.00;;;;;;5037268;28;20191;-50
2023/05/01 07:23:37;;;;;;;7.80;4.50;;;15.50;1.00;;;;;;5036703;28;20206;-50
2023/05/01 07:26:03;;;;;;;8.53;4.13;;;15.40;1.00;;;;;;5036703;28;20187;-50
2023/05/01 07:28:29;;;;;;;9.60;4.37;;;15.50;1.00;;;;;;5036854;28;20219;-50
2023/05/01 07:30:55;;;;;;;11.60;5.30;;;15.60;1.00;;;;;;5036747;28;20185;-50
2023/05/01 07:33:23;;;;;;;10.83;4.70;;;15.70;1.00;;;;;;5036711;28;20425;-50
2023/05/01 07:35:49;;;;;;;10.90;4.30;;;16.00;1.00;;;;;;5036974;28;20192;-51
2023/05/01 07:38:15;;;;;;;8.33;4.50;;;16.10;1.00;;;;;;5037057;28;20418;-50
2023/05/01 07:40:41;;;;;;;6.97;4.20;;;16.20;1.00;;;;;;5036660;28;20176;-50
2023/05/01 07:43:10;;;;;;;9.13;4.80;;;16.30;1.00;;;;;;5036963;28;20935;-50
2023/05/01 07:45:37;;;;;;;7.27;4.30;;;16.30;1.00;;;;;;5037028;28;20181;-50
2023/05/01 07:48:03;;;;;;;8.73;4.67;;;16.40;1.00;;;;;;5036379;28;20454;-48
2023/05/01 07:50:29;;;;;;;9.03;4.13;;;16.50;1.00;;;;;;5036662;28;20477;-48
2023/05/01 07:52:56;;;;;;;9.83;4.20;;;17.00;1.00;;;;;;5036716;28;20410;-49
2023/05/01 07:55:22;;;;;;;7.83;4.70;;;17.50;1.00;;;;;;5036400;28;20439;-49
2023/05/01 07:57:48;;;;;;;8.63;4.67;;;17.70;1.00;;;;;;5036573;28;20499;-48
2023/05/01 08:00:14;;;;;;;9.23;4.07;;;17.50;1.00;;;;;;5036558;28;20847;-49
2023/05/01 08:02:40;;;;;;;7.30;4.10;;;17.10;1.00;;;;;;5036034;28;20179;-49
2023/05/01 08:05:06;;;;;;;7.00;4.53;;;17.30;1.00;;;;;;5036506;28;20748;-49
2023/05/01 08:07:31;;;;;;;8.07;4.40;;;17.50;1.00;;;;;;5036237;28;20185;-51
2023/05/01 08:09:59;;;;;;;5.37;4.17;;;17.70;1.00;;;;;;5036046;28;20468;-49
2023/05/01 08:12:25;;;;;;;8.50;4.83;;;17.70;1.00;;;;;;5035892;28;20204;-50
2023/05/01 08:14:51;;;;;;;6.50;4.80;;;17.70;1.00;;;;;;5036383;28;20468;-50
2023/05/01 08:17:16;;;;;;;6.27;4.40;;;17.40;1.00;;;;;;5036165;28;20854;-50
2023/05/01 08:19:42;;;;;;;9.33;4.53;;;17.60;1.00;;;;;;5036180;28;20207;-50
2023/05/01 08:22:07;;;;;;;9.33;4.97;;;17.90;1.00;;;;;;5035950;28;20551;-50
2023/05/01 08:24:33;;;;;;;9.77;4.67;;;18.30;1.00;;;;;;5035785;28;20755;-49
2023/05/01 08:26:59;;;;;;;7.30;4.50;;;18.60;1.00;;;;;;5035098;28;20186;-50
2023/05/01 08:29:24;;;;;;;8.70;4.70;;;18.10;99.90;;;;;;5036049;28;20214;-50
2023/05/01 08:31:50;;;;;;;9.17;4.10;;;17.70;99.90;;;;;;5035927;28;20186;-50
2023/05/01 08:34:16;;;;;;;9.50;4.17;;;17.90;1.00;;;;;;5035901;28;20642;-50
2023/05/01 08:36:41;;;;;;;6.60;4.50;;;18.60;1.00;;;;;;5035329;28;20224;-51
2023/05/01 08:39:07;;;;;;;18.20;5.63;;;19.00;99.90;;;;;;5035819;28;20425;-52
2023/05/01 08:41:34;;;;;;;7.30;4.60;;;19.10;99.90;;;;;;5035731;28;20241;-51
2023/05/01 08:44:00;;;;;;;6.47;4.13;;;19.50;99.90;;;;;;5035503;28;20634;-51
2023/05/01 08:46:49;;;;;;;6.90;4.60;;;20.10;99.90;;;;;;5035539;28;20418;-51
2023/05/01 08:49:16;;;;;;;9.20;4.30;;;20.50;99.90;;;;;;5035135;28;20515;-51
2023/05/01 08:51:46;;;;;;;6.77;4.40;;;20.40;99.90;;;;;;5035764;28;20505;-52
2023/05/01 08:54:13;;;;;;;8.97;5.27;;;20.60;99.90;;;;;;5035719;28;20482;-53
2023/05/01 08:56:42;;;;;;;8.77;4.43;;;20.60;99.90;;;;;;5035356;28;20418;-51
2023/05/01 08:59:09;;;;;;;6.50;4.60;;;21.00;99.90;;;;;;5035375;28;20783;-52
2023/05/01 09:01:37;;;;;;;9.43;4.40;;;21.20;99.90;;;;;;5034928;28;20974;-51
2023/05/01 09:04:03;;;;;;;7.87;4.50;;;21.30;99.90;;;;;;5035388;28;20483;-52
2023/05/01 09:06:31;;;;;;;7.57;4.50;;;21.40;99.90;;;;;;5035494;28;20421;-51
2023/05/01 09:08:57;;;;;;;7.63;4.00;;;21.40;99.90;;;;;;5035087;28;20456;-52
2023/05/01 09:11:23;;;;;;;9.90;5.10;;;21.10;99.90;;;;;;5035033;28;20905;-53
2023/05/01 09:13:50;;;;;;;8.40;4.30;;;21.00;99.90;;;;;;5034927;28;20417;-53
2023/05/01 09:16:16;;;;;;;6.70;4.60;;;21.10;99.90;;;;;;5034804;28;20499;-53
2023/05/01 09:18:42;;;;;;;6.00;3.57;;;21.30;99.90;;;;;;5034936;28;20449;-52
2023/05/01 09:21:08;;;;;;;7.83;4.27;;;21.10;99.90;;;;;;5034843;28;20714;-53
2023/05/01 09:23:36;;;;;;;6.93;3.70;;;21.40;99.90;;;;;;5034813;28;20532;-52
2023/05/01 09:26:04;;;;;;;5.43;3.70;;;21.60;99.90;;;;;;5034712;28;20776;-52
2023/05/01 09:28:40;;;;;;;6.50;3.60;;;21.50;99.90;;;;;;5034650;28;20997;-52
2023/05/01 09:31:27;;;;;;;8.47;4.27;;;21.40;99.90;;;;;;5034834;28;20725;-51
2023/05/01 09:34:06;;;;;;;6.23;4.20;;;21.40;99.90;;;;;;5034803;28;20546;-52
2023/05/01 09:36:33;;;;;;;7.30;4.33;;;21.30;99.90;;;;;;5034262;28;20882;-52
2023/05/01 09:39:02;;;;;;;7.17;4.03;;;20.60;99.90;;;;;;5033631;28;20426;-53
2023/05/01 09:41:31;;;;;;;5.87;4.00;;;20.70;99.90;;;;;;5034466;28;20874;-51
2023/05/01 09:43:57;;;;;;;6.70;3.57;;;20.90;99.90;;;;;;5034262;28;20426;-52
2023/05/01 09:46:24;;;;;;;8.93;4.30;;;21.20;99.90;;;;;;5034549;28;20559;-53
2023/05/01 09:48:58;;;;;;;4.80;3.53;;;21.20;99.90;;;;;;5034466;28;20499;-52
2023/05/01 09:51:27;;;;;;;5.80;3.90;;;20.90;99.90;;;;;;5034389;28;20425;-53
2023/05/01 09:53:58;;;;;;;7.67;3.87;;;20.80;99.90;;;;;;5034428;28;20504;-52
2023/05/01 09:56:25;;;;;;;5.87;3.37;;;20.50;99.90;;;;;;5034617;28;20916;-53
2023/05/01 09:58:52;;;;;;;5.80;3.77;;;20.00;99.90;;;;;;5034120;28;20419;-52
2023/05/01 10:01:36;;;;;;;12.27;3.90;;;19.90;99.90;;;;;;5033848;28;20412;-53
2023/05/01 10:04:02;;;;;;;5.30;3.10;;;20.10;99.90;;;;;;5034323;28;20412;-51
2023/05/01 10:06:28;;;;;;;8.20;3.90;;;20.30;99.90;;;;;;5034430;28;20452;-52
2023/05/01 10:08:53;;;;;;;7.23;3.77;;;20.50;99.90;;;;;;5033824;28;20876;-52
2023/05/01 10:11:20;;;;;;;5.73;3.87;;;20.80;99.90;;;;;;5034028;28;20182;-52
2023/05/01 10:14:05;;;;;;;8.63;3.77;;;21.10;99.90;;;;;;5034026;28;20213;-52
2023/05/01 10:16:33;;;;;;;8.03;3.57;;;21.40;99.90;;;;;;5032537;28;20909;-51
2023/05/01 10:18:59;;;;;;;10.57;4.00;;;21.80;99.90;;;;;;5033434;28;20467;-53
2023/05/01 10:21:24;;;;;;;4.57;3.23;;;21.70;99.90;;;;;;5029959;28;20456;-53
2023/05/01 10:23:51;;;;;;;8.27;3.40;;;21.80;99.90;;;;;;5027513;28;20433;-52
2023/05/01 10:26:17;;;;;;;8.13;3.50;;;22.00;99.90;;;;;;5027668;28;20225;-53
2023/05/01 10:28:45;;;;;;;11.73;5.20;;;22.20;99.90;;;;;;5030489;28;20496;-53
2023/05/01 10:31:12;;;;;;;10.40;5.90;;;22.90;99.90;;;;;;5032012;28;20465;-52
2023/05/01 10:33:42;;;;;;;8.97;5.50;;;23.20;99.90;;;;;;5032919;28;20611;-50
2023/05/01 10:36:16;;;;;;;10.00;3.77;;;23.90;99.90;;;;;;5030838;28;21004;-50
2023/05/01 10:38:47;;;;;;;5.20;3.20;;;24.10;99.90;;;;;;5029601;28;20455;-51
2023/05/01 10:41:14;;;;;;;7.20;3.17;;;23.90;99.90;;;;;;5029955;28;20589;-51
2023/05/01 10:43:39;;;;;;;7.17;3.73;;;23.80;99.90;;;;;;5029685;28;20476;-53
2023/05/01 10:46:20;;;;;;;5.70;3.80;;;23.60;99.90;;;;;;5029322;28;20466;-53
2023/05/01 10:48:45;;;;;;;3.30;3.00;;;23.80;99.90;;;;;;5030147;28;20256;-51
2023/05/01 10:51:26;;;;;;;8.27;4.27;;;24.00;99.90;;;;;;5029694;28;20440;-50
2023/05/01 10:54:22;;;;;;;5.83;3.33;;;24.10;99.90;;;;;;5028926;28;20274;-52
2023/05/01 10:56:48;;;;;;;4.90;3.40;;;23.80;99.90;;;;;;5020125;28;20444;-50
2023/05/01 10:59:13;;;;;;;5.60;3.10;;;23.50;99.90;;;;;;5030336;28;20455;-50
2023/05/01 11:01:40;;;;;;;9.10;3.80;;;23.30;99.90;;;;;;5028945;28;20205;-50
2023/05/01 11:04:07;;;;;;;7.20;3.30;;;23.50;99.90;;;;;;5029466;28;20190;-52
2023/05/01 11:06:34;;;;;;;8.40;3.80;;;23.30;99.90;;;;;;5029415;28;20967;-51
2023/05/01 11:09:00;;;;;;;7.10;3.40;;;23.20;99.90;;;;;;5061016;28;20572;-51
2023/05/01 11:11:26;;;;;;;7.13;3.37;;;23.30;99.90;;;;;;5029784;28;20534;-51
2023/05/01 11:14:03;;;;;;;6.90;3.30;;;23.70;99.90;;;;;;5029535;28;20523;-51
2023/05/01 11:16:40;;;;;;;7.27;3.33;;;24.00;99.90;;;;;;5029814;28;20189;-51
2023/05/01 11:19:21;;;;;;;7.70;3.50;;;24.00;99.90;;;;;;5032240;28;21176;-52
2023/05/01 11:21:48;;;;;;;4.37;3.17;;;24.10;99.90;;;;;;5029501;28;20432;-50
2023/05/01 11:24:14;;;;;;;5.67;2.97;;;24.40;99.90;;;;;;5029917;28;20528;-51
2023/05/01 11:26:41;;;;;;;5.83;2.93;;;24.00;99.90;;;;;;5023883;28;20526;-51
2023/05/01 11:29:11;;;;;;;6.73;2.80;;;24.10;99.90;;;;;;5028602;28;20265;-52
2023/05/01 11:31:38;;;;;;;6.40;3.30;;;24.40;99.90;;;;;;5029831;28;20443;-53
2023/05/01 11:34:05;;;;;;;6.20;3.10;;;24.60;99.90;;;;;;5029995;28;20471;-50
2023/05/01 11:36:50;;;;;;;7.83;3.47;;;24.80;99.90;;;;;;5029448;28;20435;-51
2023/05/01 11:39:17;;;;;;;3.77;2.70;;;24.60;99.90;;;;;;5029212;28;20511;-51
2023/05/01 11:41:43;;;;;;;5.60;3.50;;;24.40;99.90;;;;;;5029834;28;20534;-51
2023/05/01 11:44:11;;;;;;;6.13;2.63;;;24.40;99.90;;;;;;5029018;28;20523;-51
2023/05/01 11:46:37;;;;;;;7.57;3.17;;;24.70;99.90;;;;;;5029881;28;20197;-51
2023/05/01 11:49:04;;;;;;;4.40;2.37;;;25.30;99.90;;;;;;5028883;28;20487;-51
2023/05/01 11:51:30;;;;;;;8.67;2.67;;;25.40;99.90;;;;;;5029418;28;23841;-52
2023/05/01 11:54:00;;;;;;;6.97;3.33;;;25.60;99.90;;;;;;5029814;28;20433;-51
2023/05/01 11:56:25;;;;;;;5.43;2.87;;;25.70;99.90;;;;;;5029023;28;20437;-51
2023/05/01 11:58:53;;;;;;;5.37;3.20;;;25.70;99.90;;;;;;5029955;28;20519;-51
2023/05/01 12:01:18;;;;;;;3.90;2.67;;;25.40;99.90;;;;;;5030324;28;20200;-51
2023/05/01 12:03:44;;;;;;;6.53;2.83;;;25.40;99.90;;;;;;5033885;28;20433;-51
2023/05/01 12:06:14;;;;;;;5.57;2.60;;;25.40;99.90;;;;;;5033121;28;20221;-51
2023/05/01 12:08:46;;;;;;;7.70;3.20;;;25.50;99.90;;;;;;5033909;28;20267;-51
2023/05/01 12:11:12;;;;;;;4.43;2.67;;;25.80;99.90;;;;;;5033618;28;20472;-50
2023/05/01 12:13:39;;;;;;;3.40;2.60;;;26.00;99.90;;;;;;5032782;28;20527;-51
2023/05/01 12:16:05;;;;;;;4.80;3.07;;;26.00;99.90;;;;;;5033691;28;20519;-51
2023/05/01 12:18:31;;;;;;;4.37;2.40;;;26.20;99.90;;;;;;5036133;28;20416;-51
2023/05/01 12:20:57;;;;;;;4.17;2.90;;;26.40;99.90;;;;;;5035842;28;20421;-51
2023/05/01 12:23:38;;;;;;;2.70;2.23;;;26.30;99.90;;;;;;5035941;28;20272;-51
2023/05/01 12:26:18;;;;;;;5.50;3.13;;;26.20;99.90;;;;;;5036185;28;20184;-51
2023/05/01 12:28:57;;;;;;;6.30;2.77;;;25.80;99.90;;;;;;5036034;28;20469;-51
2023/05/01 12:31:24;;;;;;;5.90;2.80;;;25.70;99.90;;;;;;5035921;28;20435;-51
2023/05/01 12:33:57;;;;;;;4.73;2.77;;;26.00;99.90;;;;;;5035833;28;20414;-51
2023/05/01 12:36:27;;;;;;;4.10;3.00;;;26.30;99.90;;;;;;5035601;28;20543;-52
2023/05/01 12:39:01;;;;;;;7.23;3.03;;;26.40;99.90;;;;;;5035913;28;20492;-52
2023/05/01 12:41:39;;;;;;;6.27;2.97;;;26.00;99.90;;;;;;5035674;28;20414;-52
2023/05/01 12:44:22;;;;;;;7.80;3.20;;;25.40;99.90;;;;;;5035020;28;20825;-51
2023/05/01 12:47:01;;;;;;;5.17;3.17;;;25.10;99.90;;;;;;5035714;28;20412;-51
2023/05/01 12:49:27;;;;;;;3.97;3.43;;;25.00;99.90;;;;;;5035185;28;20500;-51
2023/05/01 12:51:55;;;;;;;7.70;3.50;;;25.10;99.90;;;;;;5035460;28;20426;-51
2023/05/01 12:54:47;;;;;;;6.47;2.80;;;25.50;99.90;;;;;;5035343;28;20474;-51